KBBW/BBW METAR and TAF weather

Enter ICAO airport designator
Station Type Date Time Source
KBBW METAR 2019/02/20 07:07 UTC NOAA

KBBW 200707Z AUTO 00000KT 2SM -SN BR OVC019 M09/M11 A2980 RMK AO2 P0001 T10941111


Station Type Date Time Source
KBBW Decoded METAR 2019/02/20 07:07 UTC NOAA

BROKEN BOW MUNICIPAL AIRPORT, NE, United States (KBBW) 41-26N 099-38W
Feb 20, 2019 - 02:07 AM EST / 2019.02.20 0707 UTC
Wind: Calm:0
Visibility: 2 mile(s):0
Sky conditions: overcast
Weather: light snow; mist
Precipitation last hour: 0.01 inches
Temperature: 15.1 F (-9.4 C)
Dew Point: 12.0 F (-11.1 C)
Relative Humidity: 87%
Pressure (altimeter): 29.8 in. Hg (1009 hPa)
ob: KBBW 200707Z AUTO 00000KT 2SM -SN BR OVC019 M09/M11 A2980 RMK AO2 P0001 T10941111
cycle: 7

Station Type Date Time Source
KBBW TAF UTC NOAA

Error!


Example: see airport list